sensor_id;sensor_type;location;lat;lon;timestamp;P1;durP1;ratioP1;P2;durP2;ratioP2
286;SDS011;127;48.770;9.212;2022-08-16T00:01:49;5.90;;;4.23;;
286;SDS011;127;48.770;9.212;2022-08-16T00:04:18;7.13;;;3.97;;
286;SDS011;127;48.770;9.212;2022-08-16T00:06:46;8.53;;;4.63;;
286;SDS011;127;48.770;9.212;2022-08-16T00:09:15;9.27;;;4.80;;
286;SDS011;127;48.770;9.212;2022-08-16T00:11:44;5.83;;;4.80;;
286;SDS011;127;48.770;9.212;2022-08-16T00:14:17;7.50;;;4.97;;
286;SDS011;127;48.770;9.212;2022-08-16T00:16:51;7.80;;;5.33;;
286;SDS011;127;48.770;9.212;2022-08-16T00:19:21;9.37;;;5.47;;
286;SDS011;127;48.770;9.212;2022-08-16T00:21:51;7.40;;;4.70;;
286;SDS011;127;48.770;9.212;2022-08-16T00:24:21;6.70;;;4.97;;
286;SDS011;127;48.770;9.212;2022-08-16T00:26:50;9.10;;;5.00;;
286;SDS011;127;48.770;9.212;2022-08-16T00:29:19;5.70;;;4.70;;
286;SDS011;127;48.770;9.212;2022-08-16T00:31:51;8.93;;;5.50;;
286;SDS011;127;48.770;9.212;2022-08-16T00:34:21;8.33;;;4.53;;
286;SDS011;127;48.770;9.212;2022-08-16T00:36:50;8.00;;;5.40;;
286;SDS011;127;48.770;9.212;2022-08-16T00:39:19;9.87;;;5.03;;
286;SDS011;127;48.770;9.212;2022-08-16T00:41:48;9.90;;;4.90;;
286;SDS011;127;48.770;9.212;2022-08-16T00:44:19;7.43;;;5.03;;
286;SDS011;127;48.770;9.212;2022-08-16T00:46:53;11.63;;;5.70;;
286;SDS011;127;48.770;9.212;2022-08-16T00:49:25;9.10;;;5.20;;
286;SDS011;127;48.770;9.212;2022-08-16T00:51:54;11.30;;;5.27;;
286;SDS011;127;48.770;9.212;2022-08-16T00:54:24;8.23;;;4.93;;
286;SDS011;127;48.770;9.212;2022-08-16T00:56:56;9.90;;;5.07;;
286;SDS011;127;48.770;9.212;2022-08-16T00:59:27;6.27;;;4.83;;
286;SDS011;127;48.770;9.212;2022-08-16T01:02:03;6.73;;;5.10;;
286;SDS011;127;48.770;9.212;2022-08-16T01:04:33;10.60;;;4.97;;
286;SDS011;127;48.770;9.212;2022-08-16T01:07:03;10.97;;;4.87;;
286;SDS011;127;48.770;9.212;2022-08-16T01:09:35;10.03;;;5.77;;
286;SDS011;127;48.770;9.212;2022-08-16T01:12:07;13.13;;;5.60;;
286;SDS011;127;48.770;9.212;2022-08-16T01:14:39;7.50;;;5.70;;
286;SDS011;127;48.770;9.212;2022-08-16T01:17:13;9.87;;;5.50;;
286;SDS011;127;48.770;9.212;2022-08-16T01:19:45;8.33;;;5.30;;
286;SDS011;127;48.770;9.212;2022-08-16T01:22:18;6.00;;;4.93;;
286;SDS011;127;48.770;9.212;2022-08-16T01:24:59;8.20;;;5.17;;
286;SDS011;127;48.770;9.212;2022-08-16T01:27:33;6.70;;;4.50;;
286;SDS011;127;48.770;9.212;2022-08-16T01:30:08;19.80;;;5.70;;
286;SDS011;127;48.770;9.212;2022-08-16T01:32:39;9.03;;;5.33;;
286;SDS011;127;48.770;9.212;2022-08-16T01:35:09;8.17;;;5.70;;
286;SDS011;127;48.770;9.212;2022-08-16T01:37:46;12.23;;;5.57;;
286;SDS011;127;48.770;9.212;2022-08-16T01:40:20;10.20;;;5.43;;
286;SDS011;127;48.770;9.212;2022-08-16T01:42:52;6.87;;;4.70;;
286;SDS011;127;48.770;9.212;2022-08-16T01:45:21;10.43;;;5.87;;
286;SDS011;127;48.770;9.212;2022-08-16T01:47:50;6.90;;;4.73;;
286;SDS011;127;48.770;9.212;2022-08-16T01:50:19;9.20;;;4.93;;
286;SDS011;127;48.770;9.212;2022-08-16T01:52:49;6.40;;;5.10;;
286;SDS011;127;48.770;9.212;2022-08-16T01:55:22;8.87;;;5.50;;
286;SDS011;127;48.770;9.212;2022-08-16T01:57:51;9.33;;;5.70;;
286;SDS011;127;48.770;9.212;2022-08-16T02:00:20;8.43;;;5.30;;
286;SDS011;127;48.770;9.212;2022-08-16T02:02:49;12.80;;;5.63;;
286;SDS011;127;48.770;9.212;2022-08-16T02:05:18;9.93;;;4.73;;
286;SDS011;127;48.770;9.212;2022-08-16T02:07:47;8.60;;;4.80;;
286;SDS011;127;48.770;9.212;2022-08-16T02:10:16;10.40;;;4.60;;
286;SDS011;127;48.770;9.212;2022-08-16T02:12:47;11.53;;;6.50;;
286;SDS011;127;48.770;9.212;2022-08-16T02:15:19;7.27;;;5.30;;
286;SDS011;127;48.770;9.212;2022-08-16T02:17:49;8.27;;;4.90;;
286;SDS011;127;48.770;9.212;2022-08-16T02:20:18;8.20;;;5.30;;
286;SDS011;127;48.770;9.212;2022-08-16T02:22:47;10.20;;;5.50;;
286;SDS011;127;48.770;9.212;2022-08-16T02:25:16;14.93;;;5.70;;
286;SDS011;127;48.770;9.212;2022-08-16T02:27:47;8.93;;;5.50;;
286;SDS011;127;48.770;9.212;2022-08-16T02:30:18;9.00;;;5.80;;
286;SDS011;127;48.770;9.212;2022-08-16T02:32:49;6.47;;;5.10;;
286;SDS011;127;48.770;9.212;2022-08-16T02:35:18;8.93;;;5.60;;
286;SDS011;127;48.770;9.212;2022-08-16T02:37:47;10.10;;;5.17;;
286;SDS011;127;48.770;9.212;2022-08-16T02:40:17;11.90;;;6.00;;
286;SDS011;127;48.770;9.212;2022-08-16T02:42:49;8.07;;;5.50;;
286;SDS011;127;48.770;9.212;2022-08-16T02:45:20;10.97;;;5.70;;
286;SDS011;127;48.770;9.212;2022-08-16T02:47:51;10.93;;;6.03;;
286;SDS011;127;48.770;9.212;2022-08-16T02:50:20;8.47;;;5.40;;
286;SDS011;127;48.770;9.212;2022-08-16T02:52:49;8.43;;;5.50;;
286;SDS011;127;48.770;9.212;2022-08-16T02:55:19;8.27;;;5.07;;
286;SDS011;127;48.770;9.212;2022-08-16T02:57:50;8.53;;;5.10;;
286;SDS011;127;48.770;9.212;2022-08-16T03:00:19;6.30;;;4.90;;
286;SDS011;127;48.770;9.212;2022-08-16T03:02:48;6.73;;;5.57;;
286;SDS011;127;48.770;9.212;2022-08-16T03:05:17;8.23;;;5.50;;
286;SDS011;127;48.770;9.212;2022-08-16T03:07:45;7.57;;;5.73;;
286;SDS011;127;48.770;9.212;2022-08-16T03:10:14;10.73;;;6.00;;
286;SDS011;127;48.770;9.212;2022-08-16T03:12:44;6.57;;;5.20;;
286;SDS011;127;48.770;9.212;2022-08-16T03:15:17;14.33;;;5.97;;
286;SDS011;127;48.770;9.212;2022-08-16T03:17:46;6.50;;;5.40;;
286;SDS011;127;48.770;9.212;2022-08-16T03:20:15;8.30;;;5.67;;
286;SDS011;127;48.770;9.212;2022-08-16T03:22:44;6.90;;;5.27;;
286;SDS011;127;48.770;9.212;2022-08-16T03:25:13;9.00;;;6.10;;
286;SDS011;127;48.770;9.212;2022-08-16T03:27:44;10.10;;;6.00;;
286;SDS011;127;48.770;9.212;2022-08-16T03:30:14;7.87;;;5.40;;
286;SDS011;127;48.770;9.212;2022-08-16T03:32:48;8.67;;;5.57;;
286;SDS011;127;48.770;9.212;2022-08-16T03:35:18;8.87;;;5.90;;
286;SDS011;127;48.770;9.212;2022-08-16T03:37:51;10.80;;;5.67;;
286;SDS011;127;48.770;9.212;2022-08-16T03:40:23;6.67;;;5.23;;
286;SDS011;127;48.770;9.212;2022-08-16T03:42:52;7.53;;;6.77;;
286;SDS011;127;48.770;9.212;2022-08-16T03:45:23;7.87;;;5.20;;
286;SDS011;127;48.770;9.212;2022-08-16T03:47:52;7.43;;;5.53;;
286;SDS011;127;48.770;9.212;2022-08-16T03:50:21;8.67;;;5.70;;
286;SDS011;127;48.770;9.212;2022-08-16T03:52:50;8.30;;;5.93;;
286;SDS011;127;48.770;9.212;2022-08-16T03:55:19;10.07;;;6.30;;
286;SDS011;127;48.770;9.212;2022-08-16T03:57:48;9.73;;;6.07;;
286;SDS011;127;48.770;9.212;2022-08-16T04:00:22;9.70;;;5.87;;
286;SDS011;127;48.770;9.212;2022-08-16T04:02:56;10.23;;;6.73;;
286;SDS011;127;48.770;9.212;2022-08-16T04:05:31;10.50;;;7.30;;
286;SDS011;127;48.770;9.212;2022-08-16T04:08:00;9.07;;;6.53;;
286;SDS011;127;48.770;9.212;2022-08-16T04:10:29;14.27;;;6.47;;
286;SDS011;127;48.770;9.212;2022-08-16T04:12:58;7.60;;;5.97;;
286;SDS011;127;48.770;9.212;2022-08-16T04:15:30;12.47;;;7.20;;
286;SDS011;127;48.770;9.212;2022-08-16T04:17:58;10.03;;;6.63;;
286;SDS011;127;48.770;9.212;2022-08-16T04:20:27;8.50;;;6.40;;
286;SDS011;127;48.770;9.212;2022-08-16T04:22:56;14.20;;;5.87;;
286;SDS011;127;48.770;9.212;2022-08-16T04:25:25;10.80;;;5.60;;
286;SDS011;127;48.770;9.212;2022-08-16T04:27:55;8.60;;;5.60;;
286;SDS011;127;48.770;9.212;2022-08-16T04:30:24;10.87;;;5.70;;
286;SDS011;127;48.770;9.212;2022-08-16T04:32:56;10.73;;;5.73;;
286;SDS011;127;48.770;9.212;2022-08-16T04:35:25;8.60;;;6.33;;
286;SDS011;127;48.770;9.212;2022-08-16T04:37:54;10.97;;;5.80;;
286;SDS011;127;48.770;9.212;2022-08-16T04:40:23;9.03;;;6.23;;
286;SDS011;127;48.770;9.212;2022-08-16T04:42:53;11.20;;;5.50;;
286;SDS011;127;48.770;9.212;2022-08-16T04:45:25;6.70;;;5.17;;
286;SDS011;127;48.770;9.212;2022-08-16T04:47:57;7.40;;;5.40;;
286;SDS011;127;48.770;9.212;2022-08-16T04:50:26;8.43;;;5.30;;
286;SDS011;127;48.770;9.212;2022-08-16T04:52:55;11.77;;;6.30;;
286;SDS011;127;48.770;9.212;2022-08-16T04:55:26;9.37;;;6.10;;
286;SDS011;127;48.770;9.212;2022-08-16T04:57:56;12.93;;;5.17;;
286;SDS011;127;48.770;9.212;2022-08-16T05:00:26;10.40;;;5.63;;
286;SDS011;127;48.770;9.212;2022-08-16T05:03:00;9.27;;;5.80;;
286;SDS011;127;48.770;9.212;2022-08-16T05:05:31;7.47;;;5.70;;
286;SDS011;127;48.770;9.212;2022-08-16T05:08:01;9.07;;;6.10;;
286;SDS011;127;48.770;9.212;2022-08-16T05:10:33;6.87;;;5.30;;
286;SDS011;127;48.770;9.212;2022-08-16T05:13:03;8.97;;;5.90;;
286;SDS011;127;48.770;9.212;2022-08-16T05:15:32;6.50;;;4.93;;
286;SDS011;127;48.770;9.212;2022-08-16T05:18:04;7.27;;;5.23;;
286;SDS011;127;48.770;9.212;2022-08-16T05:20:34;9.90;;;5.17;;
286;SDS011;127;48.770;9.212;2022-08-16T05:23:02;10.00;;;5.03;;
286;SDS011;127;48.770;9.212;2022-08-16T05:25:31;11.77;;;6.13;;
286;SDS011;127;48.770;9.212;2022-08-16T05:28:00;13.37;;;6.20;;
286;SDS011;127;48.770;9.212;2022-08-16T05:30:28;7.57;;;5.80;;
286;SDS011;127;48.770;9.212;2022-08-16T05:32:57;9.80;;;6.50;;
286;SDS011;127;48.770;9.212;2022-08-16T05:35:28;8.03;;;5.07;;
286;SDS011;127;48.770;9.212;2022-08-16T05:37:57;9.50;;;5.27;;
286;SDS011;127;48.770;9.212;2022-08-16T05:40:26;8.30;;;5.10;;
286;SDS011;127;48.770;9.212;2022-08-16T05:42:55;6.53;;;4.70;;
286;SDS011;127;48.770;9.212;2022-08-16T05:45:23;9.90;;;5.43;;
286;SDS011;127;48.770;9.212;2022-08-16T05:47:52;7.60;;;5.47;;
286;SDS011;127;48.770;9.212;2022-08-16T05:50:21;8.57;;;5.50;;
286;SDS011;127;48.770;9.212;2022-08-16T05:52:52;11.10;;;5.67;;
286;SDS011;127;48.770;9.212;2022-08-16T05:55:21;8.60;;;5.63;;
286;SDS011;127;48.770;9.212;2022-08-16T05:57:50;7.80;;;5.37;;
286;SDS011;127;48.770;9.212;2022-08-16T06:00:18;11.13;;;4.90;;
286;SDS011;127;48.770;9.212;2022-08-16T06:02:47;7.80;;;5.60;;
286;SDS011;127;48.770;9.212;2022-08-16T06:05:16;8.03;;;5.70;;
286;SDS011;127;48.770;9.212;2022-08-16T06:07:45;12.53;;;5.80;;
286;SDS011;127;48.770;9.212;2022-08-16T06:10:17;8.60;;;5.03;;
286;SDS011;127;48.770;9.212;2022-08-16T06:12:46;10.53;;;5.67;;
286;SDS011;127;48.770;9.212;2022-08-16T06:15:16;9.30;;;5.97;;
286;SDS011;127;48.770;9.212;2022-08-16T06:17:47;9.40;;;5.20;;
286;SDS011;127;48.770;9.212;2022-08-16T06:20:16;10.87;;;5.40;;
286;SDS011;127;48.770;9.212;2022-08-16T06:22:46;10.03;;;5.40;;
286;SDS011;127;48.770;9.212;2022-08-16T06:25:18;9.53;;;5.83;;
286;SDS011;127;48.770;9.212;2022-08-16T06:27:47;11.83;;;6.00;;
286;SDS011;127;48.770;9.212;2022-08-16T06:30:16;8.53;;;5.33;;
286;SDS011;127;48.770;9.212;2022-08-16T06:32:45;12.70;;;5.10;;
286;SDS011;127;48.770;9.212;2022-08-16T06:35:14;10.40;;;5.10;;
286;SDS011;127;48.770;9.212;2022-08-16T06:37:42;8.70;;;5.57;;
286;SDS011;127;48.770;9.212;2022-08-16T06:40:11;14.73;;;5.43;;
286;SDS011;127;48.770;9.212;2022-08-16T06:42:42;16.60;;;5.70;;
286;SDS011;127;48.770;9.212;2022-08-16T06:45:11;8.77;;;6.30;;
286;SDS011;127;48.770;9.212;2022-08-16T06:47:40;9.73;;;6.33;;
286;SDS011;127;48.770;9.212;2022-08-16T06:50:09;10.50;;;5.40;;
286;SDS011;127;48.770;9.212;2022-08-16T06:52:38;8.10;;;5.03;;
286;SDS011;127;48.770;9.212;2022-08-16T06:55:08;10.23;;;5.40;;
286;SDS011;127;48.770;9.212;2022-08-16T06:57:38;11.57;;;5.73;;
286;SDS011;127;48.770;9.212;2022-08-16T07:00:11;10.60;;;5.60;;
286;SDS011;127;48.770;9.212;2022-08-16T07:02:41;17.37;;;6.90;;
286;SDS011;127;48.770;9.212;2022-08-16T07:05:11;10.00;;;5.90;;
286;SDS011;127;48.770;9.212;2022-08-16T07:07:42;9.70;;;5.30;;
286;SDS011;127;48.770;9.212;2022-08-16T07:10:13;15.93;;;6.40;;
286;SDS011;127;48.770;9.212;2022-08-16T07:12:42;8.67;;;6.23;;
286;SDS011;127;48.770;9.212;2022-08-16T07:15:17;12.53;;;6.13;;
286;SDS011;127;48.770;9.212;2022-08-16T07:17:47;6.93;;;5.80;;
286;SDS011;127;48.770;9.212;2022-08-16T07:20:15;9.83;;;6.10;;
286;SDS011;127;48.770;9.212;2022-08-16T07:22:47;9.10;;;5.17;;
286;SDS011;127;48.770;9.212;2022-08-16T07:25:16;15.20;;;6.30;;
286;SDS011;127;48.770;9.212;2022-08-16T07:27:45;7.70;;;6.23;;
286;SDS011;127;48.770;9.212;2022-08-16T07:30:14;9.27;;;6.00;;
286;SDS011;127;48.770;9.212;2022-08-16T07:32:46;9.87;;;5.73;;
286;SDS011;127;48.770;9.212;2022-08-16T07:35:15;8.40;;;5.40;;
286;SDS011;127;48.770;9.212;2022-08-16T07:37:44;8.53;;;5.37;;
286;SDS011;127;48.770;9.212;2022-08-16T07:40:13;14.60;;;6.27;;
286;SDS011;127;48.770;9.212;2022-08-16T07:42:42;9.10;;;5.80;;
286;SDS011;127;48.770;9.212;2022-08-16T07:45:11;13.93;;;6.20;;
286;SDS011;127;48.770;9.212;2022-08-16T07:47:42;14.10;;;6.60;;
286;SDS011;127;48.770;9.212;2022-08-16T07:50:11;10.40;;;5.97;;
286;SDS011;127;48.770;9.212;2022-08-16T07:52:41;15.00;;;5.50;;
286;SDS011;127;48.770;9.212;2022-08-16T07:55:11;8.53;;;5.83;;
286;SDS011;127;48.770;9.212;2022-08-16T07:57:41;9.77;;;5.70;;
286;SDS011;127;48.770;9.212;2022-08-16T08:00:10;10.37;;;5.43;;
286;SDS011;127;48.770;9.212;2022-08-16T08:02:43;11.90;;;5.90;;
286;SDS011;127;48.770;9.212;2022-08-16T08:05:13;10.50;;;6.10;;
286;SDS011;127;48.770;9.212;2022-08-16T08:07:42;16.60;;;6.10;;
286;SDS011;127;48.770;9.212;2022-08-16T08:10:11;9.40;;;5.60;;
286;SDS011;127;48.770;9.212;2022-08-16T08:12:40;13.93;;;5.97;;
286;SDS011;127;48.770;9.212;2022-08-16T08:15:11;6.37;;;5.40;;
286;SDS011;127;48.770;9.212;2022-08-16T08:17:40;10.63;;;5.67;;
286;SDS011;127;48.770;9.212;2022-08-16T08:20:13;8.30;;;5.90;;
286;SDS011;127;48.770;9.212;2022-08-16T08:22:44;11.93;;;6.77;;
286;SDS011;127;48.770;9.212;2022-08-16T08:25:16;15.87;;;6.50;;
286;SDS011;127;48.770;9.212;2022-08-16T08:27:45;9.23;;;6.17;;
286;SDS011;127;48.770;9.212;2022-08-16T08:30:15;6.57;;;5.60;;
286;SDS011;127;48.770;9.212;2022-08-16T08:32:46;8.23;;;5.97;;
286;SDS011;127;48.770;9.212;2022-08-16T08:35:16;8.20;;;6.03;;
286;SDS011;127;48.770;9.212;2022-08-16T08:37:50;13.80;;;7.07;;
286;SDS011;127;48.770;9.212;2022-08-16T08:40:19;7.83;;;5.80;;
286;SDS011;127;48.770;9.212;2022-08-16T08:42:48;9.50;;;6.20;;
286;SDS011;127;48.770;9.212;2022-08-16T08:48:09;8.70;;;6.03;;
286;SDS011;127;48.770;9.212;2022-08-16T08:50:38;14.53;;;7.20;;
286;SDS011;127;48.770;9.212;2022-08-16T08:53:07;13.03;;;6.67;;
286;SDS011;127;48.770;9.212;2022-08-16T08:55:36;10.80;;;6.40;;
286;SDS011;127;48.770;9.212;2022-08-16T08:58:05;12.93;;;7.00;;
286;SDS011;127;48.770;9.212;2022-08-16T09:00:34;10.37;;;6.57;;
286;SDS011;127;48.770;9.212;2022-08-16T09:03:03;9.67;;;6.67;;
286;SDS011;127;48.770;9.212;2022-08-16T09:05:34;11.27;;;6.90;;
286;SDS011;127;48.770;9.212;2022-08-16T09:08:03;11.33;;;6.40;;
286;SDS011;127;48.770;9.212;2022-08-16T09:10:32;9.30;;;7.50;;
286;SDS011;127;48.770;9.212;2022-08-16T09:13:01;16.73;;;7.20;;
286;SDS011;127;48.770;9.212;2022-08-16T09:15:30;12.73;;;8.47;;
286;SDS011;127;48.770;9.212;2022-08-16T09:17:59;12.07;;;7.30;;
286;SDS011;127;48.770;9.212;2022-08-16T09:20:34;12.10;;;6.93;;
286;SDS011;127;48.770;9.212;2022-08-16T09:23:08;11.50;;;7.50;;
286;SDS011;127;48.770;9.212;2022-08-16T09:25:37;12.07;;;7.17;;
286;SDS011;127;48.770;9.212;2022-08-16T09:28:07;10.00;;;7.27;;
286;SDS011;127;48.770;9.212;2022-08-16T09:30:37;14.83;;;7.40;;
286;SDS011;127;48.770;9.212;2022-08-16T09:33:06;10.43;;;7.30;;
286;SDS011;127;48.770;9.212;2022-08-16T09:35:38;14.37;;;6.87;;
286;SDS011;127;48.770;9.212;2022-08-16T09:38:07;13.30;;;6.90;;
286;SDS011;127;48.770;9.212;2022-08-16T09:40:38;10.67;;;6.80;;
286;SDS011;127;48.770;9.212;2022-08-16T09:43:13;13.17;;;7.13;;
286;SDS011;127;48.770;9.212;2022-08-16T09:45:50;11.43;;;6.37;;
286;SDS011;127;48.770;9.212;2022-08-16T09:48:31;12.23;;;5.97;;
286;SDS011;127;48.770;9.212;2022-08-16T09:51:18;7.13;;;5.87;;
286;SDS011;127;48.770;9.212;2022-08-16T09:54:03;7.77;;;5.80;;
286;SDS011;127;48.770;9.212;2022-08-16T09:56:33;10.50;;;6.17;;
286;SDS011;127;48.770;9.212;2022-08-16T09:59:04;7.80;;;5.50;;
286;SDS011;127;48.770;9.212;2022-08-16T10:01:35;7.00;;;5.60;;
286;SDS011;127;48.770;9.212;2022-08-16T10:04:06;9.60;;;6.30;;
286;SDS011;127;48.770;9.212;2022-08-16T10:06:38;14.30;;;6.40;;
286;SDS011;127;48.770;9.212;2022-08-16T10:09:09;14.33;;;6.10;;
286;SDS011;127;48.770;9.212;2022-08-16T10:11:38;7.33;;;6.17;;
286;SDS011;127;48.770;9.212;2022-08-16T10:14:23;15.13;;;8.30;;
286;SDS011;127;48.770;9.212;2022-08-16T10:17:02;10.23;;;6.80;;
286;SDS011;127;48.770;9.212;2022-08-16T10:19:35;10.50;;;6.77;;
286;SDS011;127;48.770;9.212;2022-08-16T10:22:06;14.23;;;6.33;;
286;SDS011;127;48.770;9.212;2022-08-16T10:24:49;12.03;;;6.80;;
286;SDS011;127;48.770;9.212;2022-08-16T10:27:20;14.30;;;6.50;;
286;SDS011;127;48.770;9.212;2022-08-16T10:29:52;8.73;;;5.83;;
286;SDS011;127;48.770;9.212;2022-08-16T10:32:21;9.93;;;6.37;;
286;SDS011;127;48.770;9.212;2022-08-16T10:34:50;7.60;;;6.50;;
286;SDS011;127;48.770;9.212;2022-08-16T10:37:21;10.63;;;6.93;;
286;SDS011;127;48.770;9.212;2022-08-16T10:39:53;13.23;;;6.77;;
286;SDS011;127;48.770;9.212;2022-08-16T10:42:22;12.10;;;6.30;;
286;SDS011;127;48.770;9.212;2022-08-16T10:44:51;9.03;;;6.37;;
286;SDS011;127;48.770;9.212;2022-08-16T10:47:20;11.23;;;6.30;;
286;SDS011;127;48.770;9.212;2022-08-16T10:49:50;9.60;;;6.47;;
286;SDS011;127;48.770;9.212;2022-08-16T10:52:24;10.03;;;6.13;;
286;SDS011;127;48.770;9.212;2022-08-16T10:54:57;11.10;;;6.33;;
286;SDS011;127;48.770;9.212;2022-08-16T10:57:30;10.70;;;6.63;;
286;SDS011;127;48.770;9.212;2022-08-16T10:59:59;10.27;;;6.67;;
286;SDS011;127;48.770;9.212;2022-08-16T11:02:29;8.30;;;5.57;;
286;SDS011;127;48.770;9.212;2022-08-16T11:04:58;12.37;;;6.40;;
286;SDS011;127;48.770;9.212;2022-08-16T11:07:30;7.60;;;5.80;;
286;SDS011;127;48.770;9.212;2022-08-16T11:10:21;13.47;;;6.67;;
286;SDS011;127;48.770;9.212;2022-08-16T11:12:51;7.93;;;6.43;;
286;SDS011;127;48.770;9.212;2022-08-16T11:15:23;7.97;;;5.80;;
286;SDS011;127;48.770;9.212;2022-08-16T11:17:53;8.33;;;5.43;;
286;SDS011;127;48.770;9.212;2022-08-16T11:20:25;11.77;;;5.40;;
286;SDS011;127;48.770;9.212;2022-08-16T11:23:17;8.37;;;5.37;;
286;SDS011;127;48.770;9.212;2022-08-16T11:25:46;6.80;;;5.10;;
286;SDS011;127;48.770;9.212;2022-08-16T11:28:15;6.80;;;5.60;;
286;SDS011;127;48.770;9.212;2022-08-16T11:30:44;6.33;;;5.40;;
286;SDS011;127;48.770;9.212;2022-08-16T11:33:14;6.30;;;5.40;;
286;SDS011;127;48.770;9.212;2022-08-16T11:35:43;7.60;;;5.93;;
286;SDS011;127;48.770;9.212;2022-08-16T11:38:13;12.63;;;5.33;;
286;SDS011;127;48.770;9.212;2022-08-16T11:40:47;8.50;;;5.20;;
286;SDS011;127;48.770;9.212;2022-08-16T11:43:21;7.30;;;5.70;;
286;SDS011;127;48.770;9.212;2022-08-16T11:45:52;9.40;;;6.70;;
286;SDS011;127;48.770;9.212;2022-08-16T11:48:23;10.17;;;6.27;;
286;SDS011;127;48.770;9.212;2022-08-16T11:50:53;7.53;;;5.60;;
286;SDS011;127;48.770;9.212;2022-08-16T11:53:26;5.43;;;4.80;;
286;SDS011;127;48.770;9.212;2022-08-16T11:55:57;9.30;;;5.80;;
286;SDS011;127;48.770;9.212;2022-08-16T11:58:27;7.20;;;5.30;;
286;SDS011;127;48.770;9.212;2022-08-16T12:00:58;8.23;;;5.23;;
286;SDS011;127;48.770;9.212;2022-08-16T12:03:28;9.57;;;5.37;;
286;SDS011;127;48.770;9.212;2022-08-16T12:05:59;6.53;;;4.23;;
286;SDS011;127;48.770;9.212;2022-08-16T12:08:34;16.23;;;5.40;;
286;SDS011;127;48.770;9.212;2022-08-16T12:11:03;7.93;;;5.43;;
286;SDS011;127;48.770;9.212;2022-08-16T12:13:33;11.07;;;5.60;;
286;SDS011;127;48.770;9.212;2022-08-16T12:16:02;10.03;;;4.60;;
286;SDS011;127;48.770;9.212;2022-08-16T12:18:32;6.93;;;5.00;;
286;SDS011;127;48.770;9.212;2022-08-16T12:21:01;8.57;;;4.80;;
286;SDS011;127;48.770;9.212;2022-08-16T12:23:31;6.57;;;5.43;;
286;SDS011;127;48.770;9.212;2022-08-16T12:26:05;7.60;;;4.43;;
286;SDS011;127;48.770;9.212;2022-08-16T12:28:36;6.70;;;5.13;;
286;SDS011;127;48.770;9.212;2022-08-16T12:31:08;8.43;;;4.90;;
286;SDS011;127;48.770;9.212;2022-08-16T12:33:37;12.13;;;5.47;;
286;SDS011;127;48.770;9.212;2022-08-16T12:36:07;8.27;;;5.30;;
286;SDS011;127;48.770;9.212;2022-08-16T12:38:39;6.70;;;4.23;;
286;SDS011;127;48.770;9.212;2022-08-16T12:41:08;6.33;;;4.40;;
286;SDS011;127;48.770;9.212;2022-08-16T12:43:39;8.77;;;5.20;;
286;SDS011;127;48.770;9.212;2022-08-16T12:46:09;8.67;;;5.03;;
286;SDS011;127;48.770;9.212;2022-08-16T12:48:39;6.63;;;4.10;;
286;SDS011;127;48.770;9.212;2022-08-16T12:51:22;6.63;;;4.50;;
286;SDS011;127;48.770;9.212;2022-08-16T12:53:55;5.30;;;4.30;;
286;SDS011;127;48.770;9.212;2022-08-16T12:56:29;6.17;;;4.37;;
286;SDS011;127;48.770;9.212;2022-08-16T12:59:00;6.30;;;4.53;;
286;SDS011;127;48.770;9.212;2022-08-16T13:01:34;9.43;;;4.70;;
286;SDS011;127;48.770;9.212;2022-08-16T13:04:06;11.40;;;4.97;;
286;SDS011;127;48.770;9.212;2022-08-16T13:06:35;8.47;;;4.60;;
286;SDS011;127;48.770;9.212;2022-08-16T13:09:08;8.83;;;4.77;;
286;SDS011;127;48.770;9.212;2022-08-16T13:11:51;8.40;;;5.43;;
286;SDS011;127;48.770;9.212;2022-08-16T13:14:25;8.90;;;5.17;;
286;SDS011;127;48.770;9.212;2022-08-16T13:16:58;10.70;;;5.50;;
286;SDS011;127;48.770;9.212;2022-08-16T13:19:28;9.70;;;4.60;;
286;SDS011;127;48.770;9.212;2022-08-16T13:21:59;6.80;;;5.00;;
286;SDS011;127;48.770;9.212;2022-08-16T13:24:31;4.53;;;4.23;;
286;SDS011;127;48.770;9.212;2022-08-16T13:27:00;7.00;;;5.00;;
286;SDS011;127;48.770;9.212;2022-08-16T13:29:28;6.53;;;5.10;;
286;SDS011;127;48.770;9.212;2022-08-16T13:32:06;8.00;;;5.33;;
286;SDS011;127;48.770;9.212;2022-08-16T13:34:37;5.50;;;4.40;;
286;SDS011;127;48.770;9.212;2022-08-16T13:37:05;7.77;;;4.90;;
286;SDS011;127;48.770;9.212;2022-08-16T13:39:39;7.20;;;4.60;;
286;SDS011;127;48.770;9.212;2022-08-16T13:42:08;4.87;;;4.10;;
286;SDS011;127;48.770;9.212;2022-08-16T13:44:39;6.67;;;4.27;;
286;SDS011;127;48.770;9.212;2022-08-16T13:47:08;5.30;;;4.60;;
286;SDS011;127;48.770;9.212;2022-08-16T13:49:36;6.20;;;4.60;;
286;SDS011;127;48.770;9.212;2022-08-16T13:52:05;7.57;;;3.93;;
286;SDS011;127;48.770;9.212;2022-08-16T13:54:38;7.83;;;4.40;;
286;SDS011;127;48.770;9.212;2022-08-16T13:57:07;9.03;;;4.70;;
286;SDS011;127;48.770;9.212;2022-08-16T13:59:36;6.63;;;4.83;;
286;SDS011;127;48.770;9.212;2022-08-16T14:02:05;7.00;;;4.20;;
286;SDS011;127;48.770;9.212;2022-08-16T14:04:36;6.57;;;4.43;;
286;SDS011;127;48.770;9.212;2022-08-16T14:07:07;6.90;;;4.00;;
286;SDS011;127;48.770;9.212;2022-08-16T14:09:40;6.07;;;4.93;;
286;SDS011;127;48.770;9.212;2022-08-16T14:12:17;8.60;;;5.40;;
286;SDS011;127;48.770;9.212;2022-08-16T14:14:49;7.40;;;4.70;;
286;SDS011;127;48.770;9.212;2022-08-16T14:17:18;6.57;;;4.20;;
286;SDS011;127;48.770;9.212;2022-08-16T14:19:48;7.00;;;4.70;;
286;SDS011;127;48.770;9.212;2022-08-16T14:22:20;8.37;;;4.40;;
286;SDS011;127;48.770;9.212;2022-08-16T14:24:53;7.33;;;4.63;;
286;SDS011;127;48.770;9.212;2022-08-16T14:27:23;8.57;;;4.93;;
286;SDS011;127;48.770;9.212;2022-08-16T14:29:55;10.20;;;4.87;;
286;SDS011;127;48.770;9.212;2022-08-16T14:32:25;5.50;;;4.33;;
286;SDS011;127;48.770;9.212;2022-08-16T14:34:56;9.97;;;4.77;;
286;SDS011;127;48.770;9.212;2022-08-16T14:37:26;7.77;;;4.70;;
286;SDS011;127;48.770;9.212;2022-08-16T14:39:57;12.73;;;4.80;;
286;SDS011;127;48.770;9.212;2022-08-16T14:42:26;7.17;;;4.70;;
286;SDS011;127;48.770;9.212;2022-08-16T14:44:55;6.23;;;4.40;;
286;SDS011;127;48.770;9.212;2022-08-16T14:47:24;13.00;;;4.87;;
286;SDS011;127;48.770;9.212;2022-08-16T14:49:56;6.00;;;5.00;;
286;SDS011;127;48.770;9.212;2022-08-16T14:52:25;7.00;;;4.50;;
286;SDS011;127;48.770;9.212;2022-08-16T14:55:03;9.10;;;5.50;;
286;SDS011;127;48.770;9.212;2022-08-16T14:57:33;6.93;;;4.07;;
286;SDS011;127;48.770;9.212;2022-08-16T15:00:02;6.40;;;4.70;;
286;SDS011;127;48.770;9.212;2022-08-16T15:02:35;6.50;;;4.87;;
286;SDS011;127;48.770;9.212;2022-08-16T15:05:04;7.00;;;4.53;;
286;SDS011;127;48.770;9.212;2022-08-16T15:07:34;8.40;;;5.33;;
286;SDS011;127;48.770;9.212;2022-08-16T15:10:07;6.20;;;4.70;;
286;SDS011;127;48.770;9.212;2022-08-16T15:12:36;7.87;;;4.97;;
286;SDS011;127;48.770;9.212;2022-08-16T15:15:06;5.83;;;4.50;;
286;SDS011;127;48.770;9.212;2022-08-16T15:17:36;5.43;;;4.70;;
286;SDS011;127;48.770;9.212;2022-08-16T15:20:06;4.10;;;3.87;;
286;SDS011;127;48.770;9.212;2022-08-16T15:22:37;7.70;;;5.00;;
286;SDS011;127;48.770;9.212;2022-08-16T15:25:14;6.23;;;4.63;;
286;SDS011;127;48.770;9.212;2022-08-16T15:27:44;11.93;;;5.00;;
286;SDS011;127;48.770;9.212;2022-08-16T15:30:16;7.07;;;4.60;;
286;SDS011;127;48.770;9.212;2022-08-16T15:32:47;8.60;;;4.50;;
286;SDS011;127;48.770;9.212;2022-08-16T15:35:16;10.10;;;4.53;;
286;SDS011;127;48.770;9.212;2022-08-16T15:37:45;8.27;;;4.73;;
286;SDS011;127;48.770;9.212;2022-08-16T15:40:18;5.70;;;3.83;;
286;SDS011;127;48.770;9.212;2022-08-16T15:42:48;11.23;;;4.63;;
286;SDS011;127;48.770;9.212;2022-08-16T15:45:19;6.03;;;4.50;;
286;SDS011;127;48.770;9.212;2022-08-16T15:48:01;8.13;;;4.57;;
286;SDS011;127;48.770;9.212;2022-08-16T15:50:30;7.33;;;4.40;;
286;SDS011;127;48.770;9.212;2022-08-16T15:53:00;10.60;;;4.93;;
286;SDS011;127;48.770;9.212;2022-08-16T15:55:37;7.03;;;4.67;;
286;SDS011;127;48.770;9.212;2022-08-16T15:58:06;6.80;;;5.67;;
286;SDS011;127;48.770;9.212;2022-08-16T16:00:35;6.13;;;4.80;;
286;SDS011;127;48.770;9.212;2022-08-16T16:03:06;7.90;;;5.03;;
286;SDS011;127;48.770;9.212;2022-08-16T16:05:36;7.93;;;5.00;;